createdAt,value
2023-02-19T00:02:57.196Z,8.54
2023-02-19T00:22:57.210Z,8.57
2023-02-19T00:42:57.419Z,8.55
2023-02-19T01:02:57.320Z,8.59
2023-02-19T01:22:57.306Z,8.62
2023-02-19T01:42:57.428Z,8.8
2023-02-19T02:02:57.397Z,8.87
2023-02-19T02:22:57.447Z,8.92
2023-02-19T02:42:57.505Z,8.93
2023-02-19T03:02:58.343Z,8.94
2023-02-19T03:22:57.765Z,8.87
2023-02-19T03:42:57.761Z,8.86
2023-02-19T04:02:57.804Z,8.88
2023-02-19T04:22:57.693Z,9.01
2023-02-19T04:42:57.711Z,9.1
2023-02-19T05:02:57.660Z,9
2023-02-19T05:22:57.857Z,8.8
2023-02-19T05:42:58.251Z,8.96
2023-02-19T06:02:57.906Z,8.85
2023-02-19T06:22:57.845Z,8.64
2023-02-19T06:42:57.976Z,8.48
2023-02-19T07:02:57.924Z,8.64
2023-02-19T07:22:57.950Z,8.74
2023-02-19T07:42:58.035Z,9
2023-02-19T08:02:58.097Z,9.11
2023-02-19T08:22:58.067Z,9.27
2023-02-19T08:42:58.249Z,9.52
2023-02-19T09:02:58.287Z,9.84
2023-02-19T09:22:58.239Z,9.75
2023-02-19T10:02:58.234Z,10.84
2023-02-19T10:22:58.346Z,10.49
2023-02-19T10:42:58.364Z,10.22
2023-02-19T11:02:58.359Z,9.44
2023-02-19T11:22:58.497Z,10.12
2023-02-19T11:42:58.408Z,10.23
2023-02-19T12:02:58.524Z,8.99
2023-02-19T12:22:58.479Z,8.44
2023-02-19T12:42:58.651Z,9.73
2023-02-19T13:02:58.596Z,9.96
2023-02-19T13:22:58.590Z,9.98
2023-02-19T13:42:58.655Z,9.61
2023-02-19T14:02:58.661Z,9.23
2023-02-19T14:22:58.708Z,8.55
2023-02-19T14:43:00.316Z,8.13
2023-02-19T15:02:58.869Z,7.67
2023-02-19T15:22:58.892Z,7.78
2023-02-19T15:42:58.952Z,7.53
2023-02-19T16:02:59.064Z,7.37
2023-02-19T16:22:59.039Z,7.18
2023-02-19T16:42:59.105Z,7.11
2023-02-19T17:02:59.111Z,7.01
2023-02-19T17:22:59.141Z,6.89
2023-02-19T17:42:59.511Z,6.79
2023-02-19T18:02:59.280Z,6.73
2023-02-19T18:22:59.330Z,6.73
2023-02-19T18:42:59.427Z,6.72
2023-02-19T19:02:59.450Z,6.82
2023-02-19T19:22:59.467Z,6.86
2023-02-19T19:42:59.423Z,6.86
2023-02-19T20:02:59.630Z,6.92
2023-02-19T20:22:59.619Z,6.91
2023-02-19T20:42:59.582Z,6.8
2023-02-19T21:02:59.674Z,6.82
2023-02-19T21:22:59.696Z,6.86
2023-02-19T21:42:59.788Z,6.93
2023-02-19T22:22:59.755Z,6.95
2023-02-19T22:42:59.816Z,6.9
2023-02-19T23:03:00.090Z,6.89
2023-02-19T23:23:00.110Z,6.86
2023-02-19T23:42:59.885Z,6.8
